sensor_id;sensor_type;location;lat;lon;timestamp;P1;durP1;ratioP1;P2;durP2;ratioP2
2021;SDS011;1015;49.756;6.994;2023-02-28T00:00:00;3.40;;;3.10;;
2021;SDS011;1015;49.756;6.994;2023-02-28T00:02:33;3.90;;;3.47;;
2021;SDS011;1015;49.756;6.994;2023-02-28T00:05:00;3.90;;;3.50;;
2021;SDS011;1015;49.756;6.994;2023-02-28T00:07:28;4.40;;;3.60;;
2021;SDS011;1015;49.756;6.994;2023-02-28T00:09:55;3.57;;;3.23;;
2021;SDS011;1015;49.756;6.994;2023-02-28T00:12:22;2.93;;;2.73;;
2021;SDS011;1015;49.756;6.994;2023-02-28T00:14:50;3.53;;;3.17;;
2021;SDS011;1015;49.756;6.994;2023-02-28T00:17:18;3.30;;;3.00;;
2021;SDS011;1015;49.756;6.994;2023-02-28T00:19:46;3.93;;;2.80;;
2021;SDS011;1015;49.756;6.994;2023-02-28T00:22:13;4.17;;;3.77;;
2021;SDS011;1015;49.756;6.994;2023-02-28T00:24:41;5.50;;;3.63;;
2021;SDS011;1015;49.756;6.994;2023-02-28T00:27:08;3.40;;;3.10;;
2021;SDS011;1015;49.756;6.994;2023-02-28T00:29:35;4.07;;;3.67;;
2021;SDS011;1015;49.756;6.994;2023-02-28T00:32:03;7.70;;;5.57;;
2021;SDS011;1015;49.756;6.994;2023-02-28T00:34:32;4.20;;;3.67;;
2021;SDS011;1015;49.756;6.994;2023-02-28T00:37:02;4.90;;;3.90;;
2021;SDS011;1015;49.756;6.994;2023-02-28T00:39:30;4.13;;;2.87;;
2021;SDS011;1015;49.756;6.994;2023-02-28T00:41:59;4.40;;;3.53;;
2021;SDS011;1015;49.756;6.994;2023-02-28T00:44:26;2.57;;;2.33;;
2021;SDS011;1015;49.756;6.994;2023-02-28T00:46:53;4.17;;;3.87;;
2021;SDS011;1015;49.756;6.994;2023-02-28T00:49:20;3.20;;;3.00;;
2021;SDS011;1015;49.756;6.994;2023-02-28T00:51:48;4.50;;;4.00;;
2021;SDS011;1015;49.756;6.994;2023-02-28T00:54:17;4.90;;;4.40;;
2021;SDS011;1015;49.756;6.994;2023-02-28T00:56:44;3.97;;;3.57;;
2021;SDS011;1015;49.756;6.994;2023-02-28T00:59:12;4.60;;;3.90;;
2021;SDS011;1015;49.756;6.994;2023-02-28T01:01:39;5.13;;;4.00;;
2021;SDS011;1015;49.756;6.994;2023-02-28T01:04:06;4.27;;;3.87;;
2021;SDS011;1015;49.756;6.994;2023-02-28T01:06:33;5.00;;;4.50;;
2021;SDS011;1015;49.756;6.994;2023-02-28T01:09:02;4.33;;;3.93;;
2021;SDS011;1015;49.756;6.994;2023-02-28T01:11:30;3.57;;;3.27;;
2021;SDS011;1015;49.756;6.994;2023-02-28T01:13:57;4.00;;;3.60;;
2021;SDS011;1015;49.756;6.994;2023-02-28T01:16:24;2.90;;;2.50;;
2021;SDS011;1015;49.756;6.994;2023-02-28T01:18:51;4.10;;;3.70;;
2021;SDS011;1015;49.756;6.994;2023-02-28T01:21:20;4.43;;;3.90;;
2021;SDS011;1015;49.756;6.994;2023-02-28T01:23:47;2.63;;;2.40;;
2021;SDS011;1015;49.756;6.994;2023-02-28T01:26:17;2.63;;;2.40;;
2021;SDS011;1015;49.756;6.994;2023-02-28T01:28:45;3.97;;;3.50;;
2021;SDS011;1015;49.756;6.994;2023-02-28T01:31:13;4.00;;;3.60;;
2021;SDS011;1015;49.756;6.994;2023-02-28T01:33:40;4.40;;;3.60;;
2021;SDS011;1015;49.756;6.994;2023-02-28T01:36:09;3.57;;;3.00;;
2021;SDS011;1015;49.756;6.994;2023-02-28T01:38:38;3.93;;;3.60;;
2021;SDS011;1015;49.756;6.994;2023-02-28T01:41:05;4.10;;;3.70;;
2021;SDS011;1015;49.756;6.994;2023-02-28T01:46:21;4.40;;;4.00;;
2021;SDS011;1015;49.756;6.994;2023-02-28T01:48:50;4.20;;;3.80;;
2021;SDS011;1015;49.756;6.994;2023-02-28T01:51:21;4.40;;;4.00;;
2021;SDS011;1015;49.756;6.994;2023-02-28T01:53:54;4.80;;;4.23;;
2021;SDS011;1015;49.756;6.994;2023-02-28T01:56:24;4.47;;;4.03;;
2021;SDS011;1015;49.756;6.994;2023-02-28T01:58:55;4.30;;;3.40;;
2021;SDS011;1015;49.756;6.994;2023-02-28T02:01:23;4.60;;;4.20;;
2021;SDS011;1015;49.756;6.994;2023-02-28T02:03:53;4.57;;;3.83;;
2021;SDS011;1015;49.756;6.994;2023-02-28T02:06:21;4.23;;;3.73;;
2021;SDS011;1015;49.756;6.994;2023-02-28T02:08:49;5.40;;;4.40;;
2021;SDS011;1015;49.756;6.994;2023-02-28T02:11:17;4.83;;;3.57;;
2021;SDS011;1015;49.756;6.994;2023-02-28T02:16:48;5.13;;;3.73;;
2021;SDS011;1015;49.756;6.994;2023-02-28T02:19:33;4.30;;;3.67;;
2021;SDS011;1015;49.756;6.994;2023-02-28T02:22:26;4.20;;;3.80;;
2021;SDS011;1015;49.756;6.994;2023-02-28T02:25:18;3.97;;;3.67;;
2021;SDS011;1015;49.756;6.994;2023-02-28T02:28:05;5.87;;;3.93;;
2021;SDS011;1015;49.756;6.994;2023-02-28T02:34:26;3.90;;;3.53;;
2021;SDS011;1015;49.756;6.994;2023-02-28T02:37:08;6.50;;;3.90;;
2021;SDS011;1015;49.756;6.994;2023-02-28T02:39:44;4.07;;;3.67;;
2021;SDS011;1015;49.756;6.994;2023-02-28T02:42:18;4.27;;;3.50;;
2021;SDS011;1015;49.756;6.994;2023-02-28T02:44:50;4.20;;;3.80;;
2021;SDS011;1015;49.756;6.994;2023-02-28T02:47:23;4.27;;;3.87;;
2021;SDS011;1015;49.756;6.994;2023-02-28T02:49:54;4.73;;;3.97;;
2021;SDS011;1015;49.756;6.994;2023-02-28T02:52:25;4.67;;;4.27;;
2021;SDS011;1015;49.756;6.994;2023-02-28T02:54:54;4.77;;;4.23;;
2021;SDS011;1015;49.756;6.994;2023-02-28T02:57:23;4.20;;;3.80;;
2021;SDS011;1015;49.756;6.994;2023-02-28T02:59:55;4.53;;;4.13;;
2021;SDS011;1015;49.756;6.994;2023-02-28T03:02:23;4.90;;;4.20;;
2021;SDS011;1015;49.756;6.994;2023-02-28T03:04:59;4.47;;;4.10;;
2021;SDS011;1015;49.756;6.994;2023-02-28T03:07:28;4.43;;;4.03;;
2021;SDS011;1015;49.756;6.994;2023-02-28T03:09:56;4.13;;;3.73;;
2021;SDS011;1015;49.756;6.994;2023-02-28T03:12:24;4.57;;;3.90;;
2021;SDS011;1015;49.756;6.994;2023-02-28T03:15:01;4.50;;;4.10;;
2021;SDS011;1015;49.756;6.994;2023-02-28T03:17:53;4.77;;;4.27;;
2021;SDS011;1015;49.756;6.994;2023-02-28T03:20:35;4.67;;;4.00;;
2021;SDS011;1015;49.756;6.994;2023-02-28T03:23:11;4.70;;;4.20;;
2021;SDS011;1015;49.756;6.994;2023-02-28T03:25:46;3.80;;;3.50;;
2021;SDS011;1015;49.756;6.994;2023-02-28T03:28:24;5.80;;;3.93;;
2021;SDS011;1015;49.756;6.994;2023-02-28T03:30:59;5.27;;;4.37;;
2021;SDS011;1015;49.756;6.994;2023-02-28T03:33:30;5.47;;;4.13;;
2021;SDS011;1015;49.756;6.994;2023-02-28T03:36:03;4.17;;;3.77;;
2021;SDS011;1015;49.756;6.994;2023-02-28T03:38:34;4.20;;;3.80;;
2021;SDS011;1015;49.756;6.994;2023-02-28T03:41:05;5.37;;;4.43;;
2021;SDS011;1015;49.756;6.994;2023-02-28T03:43:41;5.63;;;4.40;;
2021;SDS011;1015;49.756;6.994;2023-02-28T03:46:15;5.40;;;4.50;;
2021;SDS011;1015;49.756;6.994;2023-02-28T03:48:47;6.50;;;4.80;;
2021;SDS011;1015;49.756;6.994;2023-02-28T03:51:19;4.93;;;4.43;;
2021;SDS011;1015;49.756;6.994;2023-02-28T03:53:50;6.47;;;5.07;;
2021;SDS011;1015;49.756;6.994;2023-02-28T03:56:20;6.00;;;5.07;;
2021;SDS011;1015;49.756;6.994;2023-02-28T03:58:51;7.90;;;5.50;;
2021;SDS011;1015;49.756;6.994;2023-02-28T04:01:23;7.70;;;5.63;;
2021;SDS011;1015;49.756;6.994;2023-02-28T04:03:53;9.00;;;5.80;;
2021;SDS011;1015;49.756;6.994;2023-02-28T04:06:22;6.80;;;6.10;;
2021;SDS011;1015;49.756;6.994;2023-02-28T04:08:49;8.10;;;5.13;;
2021;SDS011;1015;49.756;6.994;2023-02-28T04:11:18;7.67;;;6.20;;
2021;SDS011;1015;49.756;6.994;2023-02-28T04:13:48;6.43;;;5.50;;
2021;SDS011;1015;49.756;6.994;2023-02-28T04:16:15;7.20;;;5.40;;
2021;SDS011;1015;49.756;6.994;2023-02-28T04:18:42;7.80;;;6.03;;
2021;SDS011;1015;49.756;6.994;2023-02-28T04:21:09;6.10;;;4.83;;
2021;SDS011;1015;49.756;6.994;2023-02-28T04:23:38;10.53;;;6.43;;
2021;SDS011;1015;49.756;6.994;2023-02-28T04:26:05;8.50;;;5.50;;
2021;SDS011;1015;49.756;6.994;2023-02-28T04:28:32;10.00;;;7.00;;
2021;SDS011;1015;49.756;6.994;2023-02-28T04:31:00;8.30;;;6.57;;
2021;SDS011;1015;49.756;6.994;2023-02-28T04:33:29;8.37;;;7.17;;
2021;SDS011;1015;49.756;6.994;2023-02-28T04:35:58;8.60;;;6.70;;
2021;SDS011;1015;49.756;6.994;2023-02-28T04:38:26;10.23;;;7.47;;
2021;SDS011;1015;49.756;6.994;2023-02-28T04:40:56;11.63;;;7.63;;
2021;SDS011;1015;49.756;6.994;2023-02-28T04:43:23;8.90;;;7.70;;
2021;SDS011;1015;49.756;6.994;2023-02-28T04:45:51;8.10;;;5.80;;
2021;SDS011;1015;49.756;6.994;2023-02-28T04:48:19;13.07;;;7.33;;
2021;SDS011;1015;49.756;6.994;2023-02-28T04:50:46;11.63;;;7.17;;
2021;SDS011;1015;49.756;6.994;2023-02-28T04:53:13;14.03;;;8.33;;
2021;SDS011;1015;49.756;6.994;2023-02-28T04:55:40;10.87;;;8.10;;
2021;SDS011;1015;49.756;6.994;2023-02-28T04:58:08;13.43;;;7.97;;
2021;SDS011;1015;49.756;6.994;2023-02-28T05:00:35;11.47;;;8.47;;
2021;SDS011;1015;49.756;6.994;2023-02-28T05:03:02;12.13;;;9.03;;
2021;SDS011;1015;49.756;6.994;2023-02-28T05:05:29;11.00;;;7.87;;
2021;SDS011;1015;49.756;6.994;2023-02-28T05:07:56;14.57;;;8.47;;
2021;SDS011;1015;49.756;6.994;2023-02-28T05:10:23;8.80;;;6.67;;
2021;SDS011;1015;49.756;6.994;2023-02-28T05:12:50;9.63;;;4.97;;
2021;SDS011;1015;49.756;6.994;2023-02-28T05:15:18;10.10;;;7.30;;
2021;SDS011;1015;49.756;6.994;2023-02-28T05:17:45;7.80;;;5.37;;
2021;SDS011;1015;49.756;6.994;2023-02-28T05:20:12;13.73;;;10.07;;
2021;SDS011;1015;49.756;6.994;2023-02-28T05:22:39;15.27;;;10.00;;
2021;SDS011;1015;49.756;6.994;2023-02-28T05:25:08;16.17;;;10.57;;
2021;SDS011;1015;49.756;6.994;2023-02-28T05:27:38;15.63;;;10.97;;
2021;SDS011;1015;49.756;6.994;2023-02-28T05:30:06;6.40;;;4.27;;
2021;SDS011;1015;49.756;6.994;2023-02-28T05:32:36;9.07;;;6.17;;
2021;SDS011;1015;49.756;6.994;2023-02-28T05:35:04;14.90;;;10.80;;
2021;SDS011;1015;49.756;6.994;2023-02-28T05:37:31;13.73;;;10.53;;
2021;SDS011;1015;49.756;6.994;2023-02-28T05:39:58;15.03;;;10.53;;
2021;SDS011;1015;49.756;6.994;2023-02-28T05:42:25;10.17;;;7.33;;
2021;SDS011;1015;49.756;6.994;2023-02-28T05:44:52;15.67;;;10.37;;
2021;SDS011;1015;49.756;6.994;2023-02-28T05:47:19;27.83;;;12.70;;
2021;SDS011;1015;49.756;6.994;2023-02-28T05:49:47;15.43;;;12.00;;
2021;SDS011;1015;49.756;6.994;2023-02-28T05:52:14;18.97;;;12.90;;
2021;SDS011;1015;49.756;6.994;2023-02-28T05:54:41;12.27;;;9.40;;
2021;SDS011;1015;49.756;6.994;2023-02-28T05:57:08;18.57;;;11.70;;
2021;SDS011;1015;49.756;6.994;2023-02-28T05:59:35;15.87;;;10.67;;
2021;SDS011;1015;49.756;6.994;2023-02-28T06:02:04;14.37;;;11.00;;
2021;SDS011;1015;49.756;6.994;2023-02-28T06:04:32;14.27;;;10.37;;
2021;SDS011;1015;49.756;6.994;2023-02-28T06:07:00;21.30;;;12.90;;
2021;SDS011;1015;49.756;6.994;2023-02-28T06:09:28;12.93;;;9.80;;
2021;SDS011;1015;49.756;6.994;2023-02-28T06:11:57;15.40;;;10.43;;
2021;SDS011;1015;49.756;6.994;2023-02-28T06:14:24;11.20;;;7.37;;
2021;SDS011;1015;49.756;6.994;2023-02-28T06:16:52;12.47;;;8.30;;
2021;SDS011;1015;49.756;6.994;2023-02-28T06:19:18;16.90;;;10.17;;
2021;SDS011;1015;49.756;6.994;2023-02-28T06:21:49;4.63;;;3.33;;
2021;SDS011;1015;49.756;6.994;2023-02-28T06:24:19;17.77;;;11.10;;
2021;SDS011;1015;49.756;6.994;2023-02-28T06:26:46;14.67;;;9.63;;
2021;SDS011;1015;49.756;6.994;2023-02-28T06:29:13;15.47;;;10.20;;
2021;SDS011;1015;49.756;6.994;2023-02-28T06:31:42;16.73;;;9.93;;
2021;SDS011;1015;49.756;6.994;2023-02-28T06:34:09;12.20;;;9.10;;
2021;SDS011;1015;49.756;6.994;2023-02-28T06:36:36;15.73;;;12.00;;
2021;SDS011;1015;49.756;6.994;2023-02-28T06:39:03;7.13;;;4.90;;
2021;SDS011;1015;49.756;6.994;2023-02-28T06:41:32;14.60;;;9.53;;
2021;SDS011;1015;49.756;6.994;2023-02-28T06:44:03;13.97;;;9.67;;
2021;SDS011;1015;49.756;6.994;2023-02-28T06:46:30;13.43;;;9.57;;
2021;SDS011;1015;49.756;6.994;2023-02-28T06:48:57;11.90;;;7.40;;
2021;SDS011;1015;49.756;6.994;2023-02-28T06:51:24;12.00;;;8.90;;
2021;SDS011;1015;49.756;6.994;2023-02-28T06:53:52;13.63;;;9.10;;
2021;SDS011;1015;49.756;6.994;2023-02-28T06:56:19;12.67;;;7.33;;
2021;SDS011;1015;49.756;6.994;2023-02-28T06:58:48;11.63;;;7.17;;
2021;SDS011;1015;49.756;6.994;2023-02-28T07:01:17;12.43;;;6.77;;
2021;SDS011;1015;49.756;6.994;2023-02-28T07:03:45;14.90;;;7.40;;
2021;SDS011;1015;49.756;6.994;2023-02-28T07:06:17;8.53;;;5.77;;
2021;SDS011;1015;49.756;6.994;2023-02-28T07:08:44;7.87;;;5.13;;
2021;SDS011;1015;49.756;6.994;2023-02-28T07:11:11;6.07;;;5.00;;
2021;SDS011;1015;49.756;6.994;2023-02-28T07:13:38;5.50;;;4.20;;
2021;SDS011;1015;49.756;6.994;2023-02-28T07:16:07;9.43;;;7.10;;
2021;SDS011;1015;49.756;6.994;2023-02-28T07:18:37;11.90;;;6.47;;
2021;SDS011;1015;49.756;6.994;2023-02-28T07:21:05;8.90;;;5.70;;
2021;SDS011;1015;49.756;6.994;2023-02-28T07:23:33;9.10;;;5.00;;
2021;SDS011;1015;49.756;6.994;2023-02-28T07:26:00;12.13;;;8.20;;
2021;SDS011;1015;49.756;6.994;2023-02-28T07:28:28;8.27;;;6.33;;
2021;SDS011;1015;49.756;6.994;2023-02-28T07:30:54;12.70;;;9.37;;
2021;SDS011;1015;49.756;6.994;2023-02-28T07:33:23;8.23;;;4.87;;
2021;SDS011;1015;49.756;6.994;2023-02-28T07:35:50;10.80;;;7.53;;
2021;SDS011;1015;49.756;6.994;2023-02-28T07:38:17;12.00;;;7.50;;
2021;SDS011;1015;49.756;6.994;2023-02-28T07:40:43;9.40;;;5.57;;
2021;SDS011;1015;49.756;6.994;2023-02-28T07:43:10;9.90;;;7.07;;
2021;SDS011;1015;49.756;6.994;2023-02-28T07:45:37;10.13;;;7.20;;
2021;SDS011;1015;49.756;6.994;2023-02-28T07:48:04;11.43;;;7.70;;
2021;SDS011;1015;49.756;6.994;2023-02-28T07:50:33;11.53;;;6.43;;
2021;SDS011;1015;49.756;6.994;2023-02-28T07:53:00;8.30;;;6.73;;
2021;SDS011;1015;49.756;6.994;2023-02-28T07:55:26;6.97;;;5.30;;
2021;SDS011;1015;49.756;6.994;2023-02-28T07:57:53;7.93;;;6.87;;
2021;SDS011;1015;49.756;6.994;2023-02-28T08:00:21;7.20;;;5.40;;
2021;SDS011;1015;49.756;6.994;2023-02-28T08:02:48;10.63;;;7.40;;
2021;SDS011;1015;49.756;6.994;2023-02-28T08:05:16;4.13;;;3.53;;
2021;SDS011;1015;49.756;6.994;2023-02-28T08:07:44;8.67;;;6.70;;
2021;SDS011;1015;49.756;6.994;2023-02-28T08:10:12;10.43;;;6.80;;
2021;SDS011;1015;49.756;6.994;2023-02-28T08:12:39;10.87;;;6.70;;
2021;SDS011;1015;49.756;6.994;2023-02-28T08:15:06;4.40;;;2.83;;
2021;SDS011;1015;49.756;6.994;2023-02-28T08:17:34;6.17;;;5.00;;
2021;SDS011;1015;49.756;6.994;2023-02-28T08:20:01;8.07;;;4.13;;
2021;SDS011;1015;49.756;6.994;2023-02-28T08:22:29;7.53;;;5.37;;
2021;SDS011;1015;49.756;6.994;2023-02-28T08:24:57;8.60;;;6.63;;
2021;SDS011;1015;49.756;6.994;2023-02-28T08:27:24;7.37;;;5.90;;
2021;SDS011;1015;49.756;6.994;2023-02-28T08:29:51;5.30;;;3.87;;
2021;SDS011;1015;49.756;6.994;2023-02-28T08:32:17;11.83;;;7.07;;
2021;SDS011;1015;49.756;6.994;2023-02-28T08:34:44;9.80;;;6.07;;
2021;SDS011;1015;49.756;6.994;2023-02-28T08:37:11;9.60;;;7.07;;
2021;SDS011;1015;49.756;6.994;2023-02-28T08:39:38;7.83;;;5.90;;
2021;SDS011;1015;49.756;6.994;2023-02-28T08:42:07;6.83;;;5.50;;
2021;SDS011;1015;49.756;6.994;2023-02-28T08:44:34;7.20;;;4.40;;
2021;SDS011;1015;49.756;6.994;2023-02-28T08:47:01;6.60;;;5.50;;
2021;SDS011;1015;49.756;6.994;2023-02-28T08:49:28;2.60;;;2.40;;
2021;SDS011;1015;49.756;6.994;2023-02-28T08:51:55;6.20;;;5.23;;
2021;SDS011;1015;49.756;6.994;2023-02-28T08:54:22;6.77;;;4.50;;
2021;SDS011;1015;49.756;6.994;2023-02-28T08:56:49;7.07;;;5.00;;
2021;SDS011;1015;49.756;6.994;2023-02-28T08:59:17;7.63;;;6.20;;
2021;SDS011;1015;49.756;6.994;2023-02-28T09:01:44;7.80;;;6.37;;
2021;SDS011;1015;49.756;6.994;2023-02-28T09:04:11;8.43;;;5.40;;
2021;SDS011;1015;49.756;6.994;2023-02-28T09:06:38;6.60;;;5.27;;
2021;SDS011;1015;49.756;6.994;2023-02-28T09:09:05;5.80;;;3.50;;
2021;SDS011;1015;49.756;6.994;2023-02-28T09:11:32;7.50;;;5.30;;
2021;SDS011;1015;49.756;6.994;2023-02-28T09:14:00;7.13;;;5.67;;
2021;SDS011;1015;49.756;6.994;2023-02-28T09:16:29;3.50;;;3.20;;
2021;SDS011;1015;49.756;6.994;2023-02-28T09:18:58;6.53;;;5.00;;
2021;SDS011;1015;49.756;6.994;2023-02-28T09:21:25;5.47;;;4.40;;
2021;SDS011;1015;49.756;6.994;2023-02-28T09:23:51;7.33;;;5.67;;
2021;SDS011;1015;49.756;6.994;2023-02-28T09:26:19;5.90;;;4.57;;
2021;SDS011;1015;49.756;6.994;2023-02-28T09:28:47;4.97;;;4.40;;
2021;SDS011;1015;49.756;6.994;2023-02-28T09:31:15;5.77;;;4.20;;
2021;SDS011;1015;49.756;6.994;2023-02-28T09:33:47;5.93;;;5.27;;
2021;SDS011;1015;49.756;6.994;2023-02-28T09:36:14;5.77;;;5.20;;
2021;SDS011;1015;49.756;6.994;2023-02-28T09:38:41;5.20;;;4.50;;
2021;SDS011;1015;49.756;6.994;2023-02-28T09:41:12;7.27;;;5.33;;
2021;SDS011;1015;49.756;6.994;2023-02-28T09:43:43;5.03;;;4.53;;
2021;SDS011;1015;49.756;6.994;2023-02-28T09:46:17;6.00;;;4.63;;
2021;SDS011;1015;49.756;6.994;2023-02-28T09:48:53;5.10;;;4.60;;
2021;SDS011;1015;49.756;6.994;2023-02-28T09:51:26;4.40;;;4.00;;
2021;SDS011;1015;49.756;6.994;2023-02-28T09:53:59;5.13;;;4.60;;
2021;SDS011;1015;49.756;6.994;2023-02-28T09:56:27;6.13;;;4.37;;
2021;SDS011;1015;49.756;6.994;2023-02-28T09:59:01;6.60;;;4.83;;
2021;SDS011;1015;49.756;6.994;2023-02-28T10:01:34;6.00;;;5.20;;
2021;SDS011;1015;49.756;6.994;2023-02-28T10:04:08;7.10;;;5.30;;
2021;SDS011;1015;49.756;6.994;2023-02-28T10:06:39;5.43;;;4.10;;
2021;SDS011;1015;49.756;6.994;2023-02-28T10:09:11;8.53;;;5.63;;
2021;SDS011;1015;49.756;6.994;2023-02-28T10:11:42;7.50;;;5.00;;
2021;SDS011;1015;49.756;6.994;2023-02-28T10:14:13;6.77;;;4.57;;
2021;SDS011;1015;49.756;6.994;2023-02-28T10:16:42;5.63;;;5.10;;
2021;SDS011;1015;49.756;6.994;2023-02-28T10:19:19;7.13;;;6.43;;
2021;SDS011;1015;49.756;6.994;2023-02-28T10:21:50;6.70;;;5.30;;
2021;SDS011;1015;49.756;6.994;2023-02-28T10:24:28;6.33;;;5.57;;
2021;SDS011;1015;49.756;6.994;2023-02-28T10:26:58;8.57;;;6.60;;
2021;SDS011;1015;49.756;6.994;2023-02-28T10:29:27;6.30;;;5.03;;
2021;SDS011;1015;49.756;6.994;2023-02-28T10:31:58;9.30;;;6.60;;
2021;SDS011;1015;49.756;6.994;2023-02-28T10:34:29;8.20;;;6.40;;
2021;SDS011;1015;49.756;6.994;2023-02-28T10:36:56;6.03;;;5.30;;
2021;SDS011;1015;49.756;6.994;2023-02-28T10:39:36;6.00;;;4.03;;
2021;SDS011;1015;49.756;6.994;2023-02-28T10:42:05;9.47;;;5.50;;
2021;SDS011;1015;49.756;6.994;2023-02-28T10:44:46;6.50;;;4.90;;
2021;SDS011;1015;49.756;6.994;2023-02-28T10:47:14;6.90;;;5.17;;
2021;SDS011;1015;49.756;6.994;2023-02-28T10:49:48;5.20;;;4.03;;
2021;SDS011;1015;49.756;6.994;2023-02-28T10:52:32;6.23;;;5.23;;
2021;SDS011;1015;49.756;6.994;2023-02-28T10:55:15;6.10;;;4.70;;
2021;SDS011;1015;49.756;6.994;2023-02-28T10:57:48;4.60;;;4.20;;
2021;SDS011;1015;49.756;6.994;2023-02-28T11:00:16;6.73;;;5.30;;
2021;SDS011;1015;49.756;6.994;2023-02-28T11:02:46;5.80;;;4.40;;
2021;SDS011;1015;49.756;6.994;2023-02-28T11:05:28;7.87;;;4.70;;
2021;SDS011;1015;49.756;6.994;2023-02-28T11:07:59;7.17;;;5.63;;
2021;SDS011;1015;49.756;6.994;2023-02-28T11:10:32;7.73;;;5.67;;
2021;SDS011;1015;49.756;6.994;2023-02-28T11:13:00;6.13;;;5.50;;
2021;SDS011;1015;49.756;6.994;2023-02-28T11:15:29;6.97;;;5.97;;
2021;SDS011;1015;49.756;6.994;2023-02-28T11:17:58;7.27;;;6.03;;
2021;SDS011;1015;49.756;6.994;2023-02-28T11:20:29;7.40;;;5.23;;
2021;SDS011;1015;49.756;6.994;2023-02-28T11:22:57;7.93;;;5.73;;
2021;SDS011;1015;49.756;6.994;2023-02-28T11:25:28;4.83;;;3.97;;
2021;SDS011;1015;49.756;6.994;2023-02-28T11:27:57;4.87;;;4.27;;
2021;SDS011;1015;49.756;6.994;2023-02-28T11:30:28;8.37;;;6.97;;
2021;SDS011;1015;49.756;6.994;2023-02-28T11:32:58;7.80;;;5.87;;
2021;SDS011;1015;49.756;6.994;2023-02-28T11:35:27;11.70;;;6.90;;
2021;SDS011;1015;49.756;6.994;2023-02-28T11:37:57;2.97;;;2.63;;
2021;SDS011;1015;49.756;6.994;2023-02-28T11:40:27;7.87;;;6.00;;
2021;SDS011;1015;49.756;6.994;2023-02-28T11:43:03;8.70;;;6.60;;
2021;SDS011;1015;49.756;6.994;2023-02-28T11:45:42;8.20;;;6.63;;
2021;SDS011;1015;49.756;6.994;2023-02-28T11:48:18;6.33;;;5.70;;
2021;SDS011;1015;49.756;6.994;2023-02-28T11:50:56;7.73;;;5.00;;
2021;SDS011;1015;49.756;6.994;2023-02-28T11:53:35;6.30;;;4.60;;
2021;SDS011;1015;49.756;6.994;2023-02-28T11:56:20;10.60;;;6.37;;
2021;SDS011;1015;49.756;6.994;2023-02-28T11:58:53;9.30;;;7.03;;
2021;SDS011;1015;49.756;6.994;2023-02-28T12:01:33;7.03;;;5.87;;
2021;SDS011;1015;49.756;6.994;2023-02-28T12:04:12;6.17;;;5.40;;
2021;SDS011;1015;49.756;6.994;2023-02-28T12:06:52;5.10;;;4.20;;
2021;SDS011;1015;49.756;6.994;2023-02-28T12:12:23;10.50;;;6.17;;
2021;SDS011;1015;49.756;6.994;2023-02-28T12:15:04;7.63;;;5.47;;
2021;SDS011;1015;49.756;6.994;2023-02-28T12:17:46;6.90;;;5.67;;
2021;SDS011;1015;49.756;6.994;2023-02-28T12:20:27;7.10;;;5.23;;
2021;SDS011;1015;49.756;6.994;2023-02-28T12:23:10;7.63;;;5.63;;
2021;SDS011;1015;49.756;6.994;2023-02-28T12:25:55;5.33;;;4.70;;
2021;SDS011;1015;49.756;6.994;2023-02-28T12:28:30;7.43;;;5.33;;
2021;SDS011;1015;49.756;6.994;2023-02-28T12:31:00;7.10;;;5.60;;
2021;SDS011;1015;49.756;6.994;2023-02-28T12:33:32;9.13;;;6.23;;
2021;SDS011;1015;49.756;6.994;2023-02-28T12:36:03;6.40;;;4.50;;
2021;SDS011;1015;49.756;6.994;2023-02-28T12:38:38;6.93;;;5.80;;
2021;SDS011;1015;49.756;6.994;2023-02-28T12:41:10;9.10;;;6.33;;
2021;SDS011;1015;49.756;6.994;2023-02-28T12:43:41;5.27;;;4.30;;
2021;SDS011;1015;49.756;6.994;2023-02-28T12:46:12;5.07;;;4.57;;
2021;SDS011;1015;49.756;6.994;2023-02-28T12:48:44;5.97;;;5.37;;
2021;SDS011;1015;49.756;6.994;2023-02-28T12:51:13;5.87;;;5.27;;
2021;SDS011;1015;49.756;6.994;2023-02-28T12:53:59;7.93;;;4.30;;
2021;SDS011;1015;49.756;6.994;2023-02-28T12:56:35;5.63;;;5.03;;
2021;SDS011;1015;49.756;6.994;2023-02-28T12:59:11;6.37;;;5.30;;
2021;SDS011;1015;49.756;6.994;2023-02-28T13:01:57;4.27;;;3.30;;
2021;SDS011;1015;49.756;6.994;2023-02-28T13:04:43;6.60;;;5.30;;
2021;SDS011;1015;49.756;6.994;2023-02-28T13:07:36;6.30;;;4.47;;
2021;SDS011;1015;49.756;6.994;2023-02-28T13:10:33;6.87;;;4.40;;
2021;SDS011;1015;49.756;6.994;2023-02-28T13:13:05;7.67;;;6.10;;
2021;SDS011;1015;49.756;6.994;2023-02-28T13:15:39;8.67;;;6.77;;
2021;SDS011;1015;49.756;6.994;2023-02-28T13:18:19;8.87;;;6.00;;
2021;SDS011;1015;49.756;6.994;2023-02-28T13:20:58;6.50;;;5.90;;
2021;SDS011;1015;49.756;6.994;2023-02-28T13:23:40;7.10;;;5.30;;
2021;SDS011;1015;49.756;6.994;2023-02-28T13:29:40;9.50;;;6.43;;
2021;SDS011;1015;49.756;6.994;2023-02-28T13:44:10;6.93;;;5.63;;
2021;SDS011;1015;49.756;6.994;2023-02-28T13:49:40;6.43;;;5.20;;
2021;SDS011;1015;49.756;6.994;2023-02-28T13:52:09;5.30;;;4.60;;
2021;SDS011;1015;49.756;6.994;2023-02-28T13:54:45;7.77;;;7.00;;
2021;SDS011;1015;49.756;6.994;2023-02-28T13:57:33;8.27;;;6.67;;
2021;SDS011;1015;49.756;6.994;2023-02-28T14:00:17;8.00;;;7.00;;
2021;SDS011;1015;49.756;6.994;2023-02-28T14:03:00;9.00;;;6.47;;
2021;SDS011;1015;49.756;6.994;2023-02-28T14:05:38;8.63;;;5.67;;
2021;SDS011;1015;49.756;6.994;2023-02-28T14:08:06;7.43;;;6.37;;
2021;SDS011;1015;49.756;6.994;2023-02-28T14:10:42;7.90;;;6.60;;
2021;SDS011;1015;49.756;6.994;2023-02-28T14:13:12;7.00;;;5.37;;
2021;SDS011;1015;49.756;6.994;2023-02-28T14:15:55;7.97;;;6.87;;
2021;SDS011;1015;49.756;6.994;2023-02-28T14:18:25;8.30;;;5.83;;
2021;SDS011;1015;49.756;6.994;2023-02-28T14:20:57;6.53;;;5.60;;
2021;SDS011;1015;49.756;6.994;2023-02-28T14:23:34;7.63;;;5.00;;
2021;SDS011;1015;49.756;6.994;2023-02-28T14:26:20;8.07;;;5.53;;
2021;SDS011;1015;49.756;6.994;2023-02-28T14:29:07;7.87;;;4.40;;
2021;SDS011;1015;49.756;6.994;2023-02-28T14:31:53;6.90;;;5.30;;
2021;SDS011;1015;49.756;6.994;2023-02-28T14:34:38;9.53;;;5.90;;
2021;SDS011;1015;49.756;6.994;2023-02-28T14:37:13;9.40;;;6.40;;
2021;SDS011;1015;49.756;6.994;2023-02-28T14:39:42;9.03;;;7.50;;
2021;SDS011;1015;49.756;6.994;2023-02-28T14:42:25;7.37;;;5.47;;
2021;SDS011;1015;49.756;6.994;2023-02-28T14:44:55;7.17;;;5.10;;
2021;SDS011;1015;49.756;6.994;2023-02-28T14:47:22;5.43;;;3.60;;
2021;SDS011;1015;49.756;6.994;2023-02-28T14:49:51;6.93;;;5.87;;
2021;SDS011;1015;49.756;6.994;2023-02-28T14:52:20;10.93;;;7.27;;
2021;SDS011;1015;49.756;6.994;2023-02-28T14:54:51;12.43;;;8.90;;
2021;SDS011;1015;49.756;6.994;2023-02-28T14:57:21;9.30;;;7.50;;
2021;SDS011;1015;49.756;6.994;2023-02-28T14:59:56;9.17;;;7.97;;
2021;SDS011;1015;49.756;6.994;2023-02-28T15:02:25;9.83;;;6.73;;
2021;SDS011;1015;49.756;6.994;2023-02-28T15:04:56;7.43;;;6.10;;
2021;SDS011;1015;49.756;6.994;2023-02-28T15:07:25;10.07;;;6.93;;
2021;SDS011;1015;49.756;6.994;2023-02-28T15:10:08;8.80;;;6.83;;
2021;SDS011;1015;49.756;6.994;2023-02-28T15:12:44;10.87;;;7.97;;
2021;SDS011;1015;49.756;6.994;2023-02-28T15:15:17;9.77;;;7.50;;
2021;SDS011;1015;49.756;6.994;2023-02-28T15:17:46;9.33;;;6.33;;
2021;SDS011;1015;49.756;6.994;2023-02-28T15:20:16;7.50;;;5.83;;
2021;SDS011;1015;49.756;6.994;2023-02-28T15:22:46;9.80;;;6.47;;
2021;SDS011;1015;49.756;6.994;2023-02-28T15:25:17;11.63;;;8.33;;
2021;SDS011;1015;49.756;6.994;2023-02-28T15:27:46;9.40;;;7.23;;
2021;SDS011;1015;49.756;6.994;2023-02-28T15:30:16;12.30;;;7.00;;
2021;SDS011;1015;49.756;6.994;2023-02-28T15:32:46;10.80;;;8.17;;
2021;SDS011;1015;49.756;6.994;2023-02-28T15:35:30;9.03;;;7.83;;
2021;SDS011;1015;49.756;6.994;2023-02-28T15:38:01;10.00;;;6.70;;
2021;SDS011;1015;49.756;6.994;2023-02-28T15:40:31;8.87;;;7.23;;
2021;SDS011;1015;49.756;6.994;2023-02-28T15:43:06;9.80;;;8.03;;
2021;SDS011;1015;49.756;6.994;2023-02-28T15:45:40;11.17;;;8.93;;
2021;SDS011;1015;49.756;6.994;2023-02-28T15:48:20;8.17;;;7.03;;
2021;SDS011;1015;49.756;6.994;2023-02-28T15:50:50;11.73;;;8.00;;
2021;SDS011;1015;49.756;6.994;2023-02-28T15:53:21;8.47;;;6.83;;
2021;SDS011;1015;49.756;6.994;2023-02-28T15:55:54;12.43;;;7.77;;
2021;SDS011;1015;49.756;6.994;2023-02-28T15:58:24;10.90;;;8.20;;
2021;SDS011;1015;49.756;6.994;2023-02-28T16:01:04;11.03;;;8.60;;
2021;SDS011;1015;49.756;6.994;2023-02-28T16:03:41;10.40;;;8.27;;
2021;SDS011;1015;49.756;6.994;2023-02-28T16:06:23;11.93;;;7.30;;